sensor_id;sensor_type;location;lat;lon;timestamp;P1;durP1;ratioP1;P2;durP2;ratioP2
5393;SDS011;2720;52.396;10.064;2023-02-04T00:00:07;31.83;;;3.90;;
5393;SDS011;2720;52.396;10.064;2023-02-04T00:02:37;20.63;;;2.63;;
5393;SDS011;2720;52.396;10.064;2023-02-04T00:05:06;27.90;;;3.00;;
5393;SDS011;2720;52.396;10.064;2023-02-04T00:07:34;24.97;;;3.77;;
5393;SDS011;2720;52.396;10.064;2023-02-04T00:10:01;26.20;;;2.30;;
5393;SDS011;2720;52.396;10.064;2023-02-04T00:12:29;8.00;;;1.87;;
5393;SDS011;2720;52.396;10.064;2023-02-04T00:14:56;34.97;;;2.73;;
5393;SDS011;2720;52.396;10.064;2023-02-04T00:17:23;24.53;;;3.30;;
5393;SDS011;2720;52.396;10.064;2023-02-04T00:19:50;21.73;;;2.73;;
5393;SDS011;2720;52.396;10.064;2023-02-04T00:22:18;16.33;;;2.27;;
5393;SDS011;2720;52.396;10.064;2023-02-04T00:24:46;21.00;;;2.97;;
5393;SDS011;2720;52.396;10.064;2023-02-04T00:27:14;14.10;;;2.20;;
5393;SDS011;2720;52.396;10.064;2023-02-04T00:29:42;15.27;;;2.30;;
5393;SDS011;2720;52.396;10.064;2023-02-04T00:32:09;21.53;;;3.50;;
5393;SDS011;2720;52.396;10.064;2023-02-04T00:34:36;15.90;;;2.40;;
5393;SDS011;2720;52.396;10.064;2023-02-04T00:37:03;9.33;;;1.83;;
5393;SDS011;2720;52.396;10.064;2023-02-04T00:39:31;15.37;;;3.33;;
5393;SDS011;2720;52.396;10.064;2023-02-04T00:41:58;19.63;;;1.20;;
5393;SDS011;2720;52.396;10.064;2023-02-04T00:44:25;12.60;;;1.40;;
5393;SDS011;2720;52.396;10.064;2023-02-04T00:46:52;11.83;;;1.57;;
5393;SDS011;2720;52.396;10.064;2023-02-04T00:49:19;4.00;;;1.23;;
5393;SDS011;2720;52.396;10.064;2023-02-04T00:51:46;7.20;;;1.20;;
5393;SDS011;2720;52.396;10.064;2023-02-04T00:54:13;4.33;;;1.50;;
5393;SDS011;2720;52.396;10.064;2023-02-04T00:56:42;8.87;;;0.80;;
5393;SDS011;2720;52.396;10.064;2023-02-04T00:59:09;19.90;;;1.93;;
5393;SDS011;2720;52.396;10.064;2023-02-04T01:01:36;0.60;;;0.60;;
5393;SDS011;2720;52.396;10.064;2023-02-04T01:04:03;3.00;;;0.97;;
5393;SDS011;2720;52.396;10.064;2023-02-04T01:06:31;7.20;;;2.13;;
5393;SDS011;2720;52.396;10.064;2023-02-04T01:08:58;4.87;;;0.83;;
5393;SDS011;2720;52.396;10.064;2023-02-04T01:11:26;5.43;;;1.23;;
5393;SDS011;2720;52.396;10.064;2023-02-04T01:13:55;4.70;;;1.57;;
5393;SDS011;2720;52.396;10.064;2023-02-04T01:16:23;4.70;;;0.83;;
5393;SDS011;2720;52.396;10.064;2023-02-04T01:18:50;2.83;;;0.67;;
5393;SDS011;2720;52.396;10.064;2023-02-04T01:21:19;11.00;;;1.47;;
5393;SDS011;2720;52.396;10.064;2023-02-04T01:23:47;4.93;;;0.70;;
5393;SDS011;2720;52.396;10.064;2023-02-04T01:26:14;2.50;;;1.00;;
5393;SDS011;2720;52.396;10.064;2023-02-04T01:28:41;2.70;;;0.90;;
5393;SDS011;2720;52.396;10.064;2023-02-04T01:31:09;7.67;;;1.47;;
5393;SDS011;2720;52.396;10.064;2023-02-04T01:33:38;2.83;;;1.13;;
5393;SDS011;2720;52.396;10.064;2023-02-04T01:36:05;11.90;;;2.23;;
5393;SDS011;2720;52.396;10.064;2023-02-04T01:38:32;1.77;;;0.97;;
5393;SDS011;2720;52.396;10.064;2023-02-04T01:40:59;3.50;;;1.17;;
5393;SDS011;2720;52.396;10.064;2023-02-04T01:43:27;4.17;;;1.20;;
5393;SDS011;2720;52.396;10.064;2023-02-04T01:45:54;7.10;;;0.97;;
5393;SDS011;2720;52.396;10.064;2023-02-04T01:48:22;4.93;;;1.00;;
5393;SDS011;2720;52.396;10.064;2023-02-04T01:50:50;2.87;;;0.70;;
5393;SDS011;2720;52.396;10.064;2023-02-04T01:53:19;1.10;;;1.00;;
5393;SDS011;2720;52.396;10.064;2023-02-04T01:55:48;3.40;;;0.80;;
5393;SDS011;2720;52.396;10.064;2023-02-04T01:58:15;0.97;;;0.97;;
5393;SDS011;2720;52.396;10.064;2023-02-04T02:00:43;4.83;;;0.87;;
5393;SDS011;2720;52.396;10.064;2023-02-04T02:03:10;0.77;;;0.70;;
5393;SDS011;2720;52.396;10.064;2023-02-04T02:05:39;0.57;;;0.57;;
5393;SDS011;2720;52.396;10.064;2023-02-04T02:08:09;1.70;;;0.50;;
5393;SDS011;2720;52.396;10.064;2023-02-04T02:10:36;1.77;;;0.47;;
5393;SDS011;2720;52.396;10.064;2023-02-04T02:13:07;2.10;;;0.30;;
5393;SDS011;2720;52.396;10.064;2023-02-04T02:15:37;0.50;;;0.43;;
5393;SDS011;2720;52.396;10.064;2023-02-04T02:18:04;0.50;;;0.50;;
5393;SDS011;2720;52.396;10.064;2023-02-04T02:20:31;1.03;;;0.63;;
5393;SDS011;2720;52.396;10.064;2023-02-04T02:23:02;0.50;;;0.50;;
5393;SDS011;2720;52.396;10.064;2023-02-04T02:25:37;1.73;;;0.70;;
5393;SDS011;2720;52.396;10.064;2023-02-04T02:28:06;1.90;;;0.93;;
5393;SDS011;2720;52.396;10.064;2023-02-04T02:30:36;1.90;;;0.77;;
5393;SDS011;2720;52.396;10.064;2023-02-04T02:33:03;3.33;;;0.70;;
5393;SDS011;2720;52.396;10.064;2023-02-04T02:35:32;1.80;;;0.50;;
5393;SDS011;2720;52.396;10.064;2023-02-04T02:37:59;0.90;;;0.47;;
5393;SDS011;2720;52.396;10.064;2023-02-04T02:40:26;0.87;;;0.50;;
5393;SDS011;2720;52.396;10.064;2023-02-04T02:42:55;2.73;;;0.43;;
5393;SDS011;2720;52.396;10.064;2023-02-04T02:45:24;1.57;;;0.40;;
5393;SDS011;2720;52.396;10.064;2023-02-04T02:47:52;1.80;;;1.20;;
5393;SDS011;2720;52.396;10.064;2023-02-04T02:50:20;12.40;;;1.67;;
5393;SDS011;2720;52.396;10.064;2023-02-04T02:52:50;0.80;;;0.60;;
5393;SDS011;2720;52.396;10.064;2023-02-04T02:55:17;1.70;;;0.73;;
5393;SDS011;2720;52.396;10.064;2023-02-04T02:57:46;0.60;;;0.60;;
5393;SDS011;2720;52.396;10.064;2023-02-04T03:00:17;0.80;;;0.60;;
5393;SDS011;2720;52.396;10.064;2023-02-04T03:02:50;0.70;;;0.50;;
5393;SDS011;2720;52.396;10.064;2023-02-04T03:05:23;1.70;;;0.47;;
5393;SDS011;2720;52.396;10.064;2023-02-04T03:07:51;4.30;;;0.70;;
5393;SDS011;2720;52.396;10.064;2023-02-04T03:10:18;3.67;;;0.50;;
5393;SDS011;2720;52.396;10.064;2023-02-04T03:12:45;2.47;;;0.60;;
5393;SDS011;2720;52.396;10.064;2023-02-04T03:15:13;0.80;;;0.70;;
5393;SDS011;2720;52.396;10.064;2023-02-04T03:17:41;3.43;;;0.60;;
5393;SDS011;2720;52.396;10.064;2023-02-04T03:20:09;0.80;;;0.50;;
5393;SDS011;2720;52.396;10.064;2023-02-04T03:22:37;2.30;;;0.70;;
5393;SDS011;2720;52.396;10.064;2023-02-04T03:25:04;2.70;;;0.77;;
5393;SDS011;2720;52.396;10.064;2023-02-04T03:27:32;0.63;;;0.63;;
5393;SDS011;2720;52.396;10.064;2023-02-04T03:29:59;6.60;;;0.60;;
5393;SDS011;2720;52.396;10.064;2023-02-04T03:32:26;3.97;;;1.90;;
5393;SDS011;2720;52.396;10.064;2023-02-04T03:34:54;1.30;;;1.20;;
5393;SDS011;2720;52.396;10.064;2023-02-04T03:37:21;2.53;;;0.60;;
5393;SDS011;2720;52.396;10.064;2023-02-04T03:39:48;0.60;;;0.60;;
5393;SDS011;2720;52.396;10.064;2023-02-04T03:42:15;2.17;;;0.73;;
5393;SDS011;2720;52.396;10.064;2023-02-04T03:44:43;0.97;;;0.70;;
5393;SDS011;2720;52.396;10.064;2023-02-04T03:47:10;2.40;;;0.70;;
5393;SDS011;2720;52.396;10.064;2023-02-04T03:49:37;0.80;;;0.40;;
5393;SDS011;2720;52.396;10.064;2023-02-04T03:52:05;2.50;;;0.80;;
5393;SDS011;2720;52.396;10.064;2023-02-04T03:54:32;0.90;;;0.60;;
5393;SDS011;2720;52.396;10.064;2023-02-04T03:56:59;6.30;;;0.90;;
5393;SDS011;2720;52.396;10.064;2023-02-04T03:59:26;0.83;;;0.67;;
5393;SDS011;2720;52.396;10.064;2023-02-04T04:01:53;2.70;;;0.77;;
5393;SDS011;2720;52.396;10.064;2023-02-04T04:04:20;2.20;;;0.83;;
5393;SDS011;2720;52.396;10.064;2023-02-04T04:06:47;4.33;;;0.80;;
5393;SDS011;2720;52.396;10.064;2023-02-04T04:09:16;1.30;;;1.13;;
5393;SDS011;2720;52.396;10.064;2023-02-04T04:11:42;1.03;;;0.70;;
5393;SDS011;2720;52.396;10.064;2023-02-04T04:14:09;6.93;;;1.30;;
5393;SDS011;2720;52.396;10.064;2023-02-04T04:16:36;0.70;;;0.70;;
5393;SDS011;2720;52.396;10.064;2023-02-04T04:19:03;1.10;;;0.83;;
5393;SDS011;2720;52.396;10.064;2023-02-04T04:21:30;3.33;;;1.10;;
5393;SDS011;2720;52.396;10.064;2023-02-04T04:23:57;2.13;;;1.15;;
5393;SDS011;2720;52.396;10.064;2023-02-04T04:26:26;4.03;;;2.20;;
5393;SDS011;2720;52.396;10.064;2023-02-04T04:28:53;1.10;;;0.70;;
5393;SDS011;2720;52.396;10.064;2023-02-04T04:31:20;2.42;;;1.00;;
5393;SDS011;2720;52.396;10.064;2023-02-04T04:33:47;1.37;;;1.27;;
5393;SDS011;2720;52.396;10.064;2023-02-04T04:36:14;1.20;;;1.10;;
5393;SDS011;2720;52.396;10.064;2023-02-04T04:38:41;3.90;;;1.43;;
5393;SDS011;2720;52.396;10.064;2023-02-04T04:41:08;0.85;;;0.85;;
5393;SDS011;2720;52.396;10.064;2023-02-04T04:43:36;1.37;;;1.13;;
5393;SDS011;2720;52.396;10.064;2023-02-04T04:46:03;1.40;;;0.90;;
5393;SDS011;2720;52.396;10.064;2023-02-04T04:48:30;1.15;;;0.85;;
5393;SDS011;2720;52.396;10.064;2023-02-04T04:50:57;2.20;;;1.27;;
5393;SDS011;2720;52.396;10.064;2023-02-04T04:53:24;1.80;;;1.52;;
5393;SDS011;2720;52.396;10.064;2023-02-04T04:55:51;2.40;;;1.30;;
5393;SDS011;2720;52.396;10.064;2023-02-04T04:58:18;2.00;;;1.90;;
5393;SDS011;2720;52.396;10.064;2023-02-04T05:00:47;0.88;;;0.88;;
5393;SDS011;2720;52.396;10.064;2023-02-04T05:03:13;1.00;;;0.98;;
5393;SDS011;2720;52.396;10.064;2023-02-04T05:05:40;1.30;;;1.25;;
5393;SDS011;2720;52.396;10.064;2023-02-04T05:08:08;1.02;;;1.02;;
5393;SDS011;2720;52.396;10.064;2023-02-04T05:10:38;0.90;;;0.77;;
5393;SDS011;2720;52.396;10.064;2023-02-04T05:13:05;2.70;;;1.13;;
5393;SDS011;2720;52.396;10.064;2023-02-04T05:15:32;1.83;;;1.42;;
5393;SDS011;2720;52.396;10.064;2023-02-04T05:18:00;1.00;;;0.85;;
5393;SDS011;2720;52.396;10.064;2023-02-04T05:20:27;1.40;;;1.30;;
5393;SDS011;2720;52.396;10.064;2023-02-04T05:22:54;6.18;;;2.15;;
5393;SDS011;2720;52.396;10.064;2023-02-04T05:25:25;1.85;;;1.20;;
5393;SDS011;2720;52.396;10.064;2023-02-04T05:27:52;1.50;;;0.70;;
5393;SDS011;2720;52.396;10.064;2023-02-04T05:30:19;2.55;;;1.40;;
5393;SDS011;2720;52.396;10.064;2023-02-04T05:32:46;2.00;;;1.25;;
5393;SDS011;2720;52.396;10.064;2023-02-04T05:35:14;3.55;;;1.25;;
5393;SDS011;2720;52.396;10.064;2023-02-04T05:37:41;3.33;;;1.23;;
5393;SDS011;2720;52.396;10.064;2023-02-04T05:40:09;1.38;;;1.27;;
5393;SDS011;2720;52.396;10.064;2023-02-04T05:42:36;1.00;;;1.00;;
5393;SDS011;2720;52.396;10.064;2023-02-04T05:45:03;2.45;;;1.65;;
5393;SDS011;2720;52.396;10.064;2023-02-04T05:47:31;4.45;;;2.30;;
5393;SDS011;2720;52.396;10.064;2023-02-04T05:49:58;2.20;;;1.90;;
5393;SDS011;2720;52.396;10.064;2023-02-04T05:52:26;4.88;;;2.05;;
5393;SDS011;2720;52.396;10.064;2023-02-04T05:54:53;4.25;;;2.95;;
5393;SDS011;2720;52.396;10.064;2023-02-04T05:57:20;9.30;;;3.22;;
5393;SDS011;2720;52.396;10.064;2023-02-04T05:59:47;6.18;;;3.35;;
5393;SDS011;2720;52.396;10.064;2023-02-04T06:02:14;3.60;;;2.65;;
5393;SDS011;2720;52.396;10.064;2023-02-04T06:04:41;11.40;;;2.92;;
5393;SDS011;2720;52.396;10.064;2023-02-04T06:07:08;5.82;;;2.63;;
5393;SDS011;2720;52.396;10.064;2023-02-04T06:09:36;6.15;;;2.80;;
5393;SDS011;2720;52.396;10.064;2023-02-04T06:12:06;3.60;;;2.50;;
5393;SDS011;2720;52.396;10.064;2023-02-04T06:14:34;2.92;;;2.13;;
5393;SDS011;2720;52.396;10.064;2023-02-04T06:17:01;2.42;;;2.22;;
5393;SDS011;2720;52.396;10.064;2023-02-04T06:19:28;3.42;;;1.95;;
5393;SDS011;2720;52.396;10.064;2023-02-04T06:21:55;4.45;;;2.05;;
5393;SDS011;2720;52.396;10.064;2023-02-04T06:24:22;2.63;;;1.55;;
5393;SDS011;2720;52.396;10.064;2023-02-04T06:26:50;2.88;;;2.10;;
5393;SDS011;2720;52.396;10.064;2023-02-04T06:29:17;2.75;;;1.95;;
5393;SDS011;2720;52.396;10.064;2023-02-04T06:31:44;5.72;;;2.22;;
5393;SDS011;2720;52.396;10.064;2023-02-04T06:34:13;2.20;;;1.88;;
5393;SDS011;2720;52.396;10.064;2023-02-04T06:36:40;3.97;;;1.85;;
5393;SDS011;2720;52.396;10.064;2023-02-04T06:39:07;3.20;;;2.28;;
5393;SDS011;2720;52.396;10.064;2023-02-04T06:41:34;2.17;;;1.67;;
5393;SDS011;2720;52.396;10.064;2023-02-04T06:44:02;2.97;;;1.60;;
5393;SDS011;2720;52.396;10.064;2023-02-04T06:46:29;4.05;;;2.15;;
5393;SDS011;2720;52.396;10.064;2023-02-04T06:48:56;2.40;;;2.20;;
5393;SDS011;2720;52.396;10.064;2023-02-04T06:51:23;4.95;;;2.28;;
5393;SDS011;2720;52.396;10.064;2023-02-04T06:53:50;3.35;;;2.10;;
5393;SDS011;2720;52.396;10.064;2023-02-04T06:56:17;2.88;;;1.88;;
5393;SDS011;2720;52.396;10.064;2023-02-04T06:58:44;4.00;;;1.60;;
5393;SDS011;2720;52.396;10.064;2023-02-04T07:01:12;1.70;;;1.60;;
5393;SDS011;2720;52.396;10.064;2023-02-04T07:03:39;3.72;;;1.75;;
5393;SDS011;2720;52.396;10.064;2023-02-04T07:06:06;1.83;;;1.02;;
5393;SDS011;2720;52.396;10.064;2023-02-04T07:08:33;3.67;;;2.00;;
5393;SDS011;2720;52.396;10.064;2023-02-04T07:11:00;5.65;;;3.15;;
5393;SDS011;2720;52.396;10.064;2023-02-04T07:13:27;1.88;;;1.50;;
5393;SDS011;2720;52.396;10.064;2023-02-04T07:15:54;5.13;;;1.60;;
5393;SDS011;2720;52.396;10.064;2023-02-04T07:18:23;5.40;;;1.42;;
5393;SDS011;2720;52.396;10.064;2023-02-04T07:20:50;1.88;;;1.70;;
5393;SDS011;2720;52.396;10.064;2023-02-04T07:23:17;2.10;;;1.20;;
5393;SDS011;2720;52.396;10.064;2023-02-04T07:25:44;2.05;;;1.70;;
5393;SDS011;2720;52.396;10.064;2023-02-04T07:28:11;4.43;;;1.98;;
5393;SDS011;2720;52.396;10.064;2023-02-04T07:30:38;6.28;;;1.42;;
5393;SDS011;2720;52.396;10.064;2023-02-04T07:33:04;5.20;;;1.70;;
5393;SDS011;2720;52.396;10.064;2023-02-04T07:35:33;4.40;;;1.73;;
5393;SDS011;2720;52.396;10.064;2023-02-04T07:38:02;3.03;;;1.30;;
5393;SDS011;2720;52.396;10.064;2023-02-04T07:40:29;1.40;;;1.30;;
5393;SDS011;2720;52.396;10.064;2023-02-04T07:42:56;1.65;;;1.55;;
5393;SDS011;2720;52.396;10.064;2023-02-04T07:45:23;3.60;;;1.70;;
5393;SDS011;2720;52.396;10.064;2023-02-04T07:47:50;12.90;;;2.03;;
5393;SDS011;2720;52.396;10.064;2023-02-04T07:50:17;4.03;;;2.33;;
5393;SDS011;2720;52.396;10.064;2023-02-04T07:52:46;7.00;;;3.93;;
5393;SDS011;2720;52.396;10.064;2023-02-04T07:55:13;3.67;;;2.80;;
5393;SDS011;2720;52.396;10.064;2023-02-04T07:57:40;5.03;;;2.53;;
5393;SDS011;2720;52.396;10.064;2023-02-04T08:00:08;6.03;;;1.70;;
5393;SDS011;2720;52.396;10.064;2023-02-04T08:02:38;2.33;;;2.00;;
5393;SDS011;2720;52.396;10.064;2023-02-04T08:05:05;3.37;;;2.00;;
5393;SDS011;2720;52.396;10.064;2023-02-04T08:07:33;10.83;;;5.47;;
5393;SDS011;2720;52.396;10.064;2023-02-04T08:10:01;5.47;;;3.63;;
5393;SDS011;2720;52.396;10.064;2023-02-04T08:12:29;5.63;;;2.77;;
5393;SDS011;2720;52.396;10.064;2023-02-04T08:14:56;11.93;;;5.27;;
5393;SDS011;2720;52.396;10.064;2023-02-04T08:17:24;5.93;;;3.73;;
5393;SDS011;2720;52.396;10.064;2023-02-04T08:19:51;4.05;;;3.03;;
5393;SDS011;2720;52.396;10.064;2023-02-04T08:22:18;3.07;;;2.43;;
5393;SDS011;2720;52.396;10.064;2023-02-04T08:24:45;2.50;;;2.10;;
5393;SDS011;2720;52.396;10.064;2023-02-04T08:27:13;13.20;;;3.40;;
5393;SDS011;2720;52.396;10.064;2023-02-04T08:29:40;5.65;;;3.25;;
5393;SDS011;2720;52.396;10.064;2023-02-04T08:32:07;2.47;;;2.27;;
5393;SDS011;2720;52.396;10.064;2023-02-04T08:34:37;9.67;;;3.90;;
5393;SDS011;2720;52.396;10.064;2023-02-04T08:37:04;8.93;;;5.10;;
5393;SDS011;2720;52.396;10.064;2023-02-04T08:39:31;9.10;;;5.53;;
5393;SDS011;2720;52.396;10.064;2023-02-04T08:41:58;9.00;;;5.27;;
5393;SDS011;2720;52.396;10.064;2023-02-04T08:44:26;6.33;;;4.37;;
5393;SDS011;2720;52.396;10.064;2023-02-04T08:46:53;5.40;;;4.00;;
5393;SDS011;2720;52.396;10.064;2023-02-04T08:49:20;6.73;;;4.53;;
5393;SDS011;2720;52.396;10.064;2023-02-04T08:51:47;8.37;;;4.37;;
5393;SDS011;2720;52.396;10.064;2023-02-04T08:54:14;16.03;;;4.80;;
5393;SDS011;2720;52.396;10.064;2023-02-04T08:56:41;9.00;;;4.33;;
5393;SDS011;2720;52.396;10.064;2023-02-04T08:59:08;5.40;;;4.10;;
5393;SDS011;2720;52.396;10.064;2023-02-04T09:01:37;7.23;;;3.50;;
5393;SDS011;2720;52.396;10.064;2023-02-04T09:04:04;5.10;;;3.63;;
5393;SDS011;2720;52.396;10.064;2023-02-04T09:06:31;7.00;;;4.27;;
5393;SDS011;2720;52.396;10.064;2023-02-04T09:08:58;8.90;;;4.53;;
5393;SDS011;2720;52.396;10.064;2023-02-04T09:11:25;8.33;;;5.50;;
5393;SDS011;2720;52.396;10.064;2023-02-04T09:13:52;17.63;;;5.40;;
5393;SDS011;2720;52.396;10.064;2023-02-04T09:16:21;17.40;;;5.23;;
5393;SDS011;2720;52.396;10.064;2023-02-04T09:18:49;6.47;;;4.20;;
5393;SDS011;2720;52.396;10.064;2023-02-04T09:21:16;19.07;;;4.30;;
5393;SDS011;2720;52.396;10.064;2023-02-04T09:23:43;6.73;;;4.40;;
5393;SDS011;2720;52.396;10.064;2023-02-04T09:26:11;8.27;;;3.80;;
5393;SDS011;2720;52.396;10.064;2023-02-04T09:28:38;8.30;;;3.70;;
5393;SDS011;2720;52.396;10.064;2023-02-04T09:31:05;5.97;;;3.70;;
5393;SDS011;2720;52.396;10.064;2023-02-04T09:33:32;8.77;;;3.20;;
5393;SDS011;2720;52.396;10.064;2023-02-04T09:36:01;3.90;;;2.13;;
5393;SDS011;2720;52.396;10.064;2023-02-04T09:38:28;5.10;;;2.40;;
5393;SDS011;2720;52.396;10.064;2023-02-04T09:40:56;4.33;;;2.07;;
5393;SDS011;2720;52.396;10.064;2023-02-04T09:43:27;7.10;;;1.53;;
5393;SDS011;2720;52.396;10.064;2023-02-04T09:45:56;3.00;;;1.53;;
5393;SDS011;2720;52.396;10.064;2023-02-04T09:48:24;7.87;;;2.17;;
5393;SDS011;2720;52.396;10.064;2023-02-04T09:50:52;4.97;;;1.60;;
5393;SDS011;2720;52.396;10.064;2023-02-04T09:53:29;2.10;;;1.47;;
5393;SDS011;2720;52.396;10.064;2023-02-04T09:55:57;5.50;;;1.70;;
5393;SDS011;2720;52.396;10.064;2023-02-04T09:58:25;1.37;;;1.20;;
5393;SDS011;2720;52.396;10.064;2023-02-04T10:00:57;1.60;;;1.50;;
5393;SDS011;2720;52.396;10.064;2023-02-04T10:03:26;2.30;;;1.20;;
5393;SDS011;2720;52.396;10.064;2023-02-04T10:05:53;5.40;;;1.97;;
5393;SDS011;2720;52.396;10.064;2023-02-04T10:08:23;3.87;;;2.23;;
5393;SDS011;2720;52.396;10.064;2023-02-04T10:10:53;2.13;;;1.77;;
5393;SDS011;2720;52.396;10.064;2023-02-04T10:13:22;3.40;;;2.13;;
5393;SDS011;2720;52.396;10.064;2023-02-04T10:15:53;3.60;;;1.70;;
5393;SDS011;2720;52.396;10.064;2023-02-04T10:18:21;3.37;;;1.57;;
5393;SDS011;2720;52.396;10.064;2023-02-04T10:20:51;1.70;;;1.60;;
5393;SDS011;2720;52.396;10.064;2023-02-04T10:23:23;2.10;;;1.50;;
5393;SDS011;2720;52.396;10.064;2023-02-04T10:25:50;2.93;;;1.50;;
5393;SDS011;2720;52.396;10.064;2023-02-04T10:28:17;1.80;;;1.67;;
5393;SDS011;2720;52.396;10.064;2023-02-04T10:30:44;2.37;;;1.27;;
5393;SDS011;2720;52.396;10.064;2023-02-04T10:33:12;5.10;;;2.40;;
5393;SDS011;2720;52.396;10.064;2023-02-04T10:35:43;1.87;;;1.40;;
5393;SDS011;2720;52.396;10.064;2023-02-04T10:38:12;6.63;;;2.43;;
5393;SDS011;2720;52.396;10.064;2023-02-04T10:40:40;5.70;;;2.03;;
5393;SDS011;2720;52.396;10.064;2023-02-04T10:43:08;6.17;;;2.13;;
5393;SDS011;2720;52.396;10.064;2023-02-04T10:45:36;9.00;;;1.60;;
5393;SDS011;2720;52.396;10.064;2023-02-04T10:48:04;2.47;;;0.90;;
5393;SDS011;2720;52.396;10.064;2023-02-04T10:50:32;1.40;;;1.30;;
5393;SDS011;2720;52.396;10.064;2023-02-04T10:52:59;1.50;;;1.40;;
5393;SDS011;2720;52.396;10.064;2023-02-04T10:55:46;4.67;;;2.07;;
5393;SDS011;2720;52.396;10.064;2023-02-04T10:58:17;1.80;;;1.70;;
5393;SDS011;2720;52.396;10.064;2023-02-04T11:00:48;3.50;;;1.40;;
5393;SDS011;2720;52.396;10.064;2023-02-04T11:03:17;9.10;;;1.70;;
5393;SDS011;2720;52.396;10.064;2023-02-04T11:05:47;0.93;;;0.93;;
5393;SDS011;2720;52.396;10.064;2023-02-04T11:08:17;2.23;;;1.23;;
5393;SDS011;2720;52.396;10.064;2023-02-04T11:10:50;1.60;;;1.10;;
5393;SDS011;2720;52.396;10.064;2023-02-04T11:13:20;3.10;;;1.60;;
5393;SDS011;2720;52.396;10.064;2023-02-04T11:15:53;2.60;;;1.30;;
5393;SDS011;2720;52.396;10.064;2023-02-04T11:18:42;1.20;;;1.00;;
5393;SDS011;2720;52.396;10.064;2023-02-04T11:21:19;2.73;;;1.00;;
5393;SDS011;2720;52.396;10.064;2023-02-04T11:23:48;1.80;;;0.93;;
5393;SDS011;2720;52.396;10.064;2023-02-04T11:26:17;1.33;;;1.17;;
5393;SDS011;2720;52.396;10.064;2023-02-04T11:29:07;1.10;;;0.70;;
5393;SDS011;2720;52.396;10.064;2023-02-04T11:31:57;4.20;;;0.80;;
5393;SDS011;2720;52.396;10.064;2023-02-04T11:34:42;0.80;;;0.50;;
5393;SDS011;2720;52.396;10.064;2023-02-04T11:37:14;1.47;;;0.87;;
5393;SDS011;2720;52.396;10.064;2023-02-04T11:39:44;0.83;;;0.70;;
5393;SDS011;2720;52.396;10.064;2023-02-04T11:42:17;3.10;;;0.57;;
5393;SDS011;2720;52.396;10.064;2023-02-04T11:44:47;5.13;;;0.70;;
5393;SDS011;2720;52.396;10.064;2023-02-04T11:47:19;4.20;;;0.93;;
5393;SDS011;2720;52.396;10.064;2023-02-04T11:49:51;0.70;;;0.70;;
5393;SDS011;2720;52.396;10.064;2023-02-04T11:52:20;1.93;;;0.90;;
5393;SDS011;2720;52.396;10.064;2023-02-04T11:54:53;1.23;;;0.70;;
5393;SDS011;2720;52.396;10.064;2023-02-04T11:57:23;2.70;;;1.23;;
5393;SDS011;2720;52.396;10.064;2023-02-04T11:59:50;5.33;;;2.07;;
5393;SDS011;2720;52.396;10.064;2023-02-04T12:02:18;6.57;;;1.80;;
5393;SDS011;2720;52.396;10.064;2023-02-04T12:04:49;2.87;;;1.17;;
5393;SDS011;2720;52.396;10.064;2023-02-04T12:07:20;0.73;;;0.67;;
5393;SDS011;2720;52.396;10.064;2023-02-04T12:09:50;1.63;;;1.53;;
5393;SDS011;2720;52.396;10.064;2023-02-04T12:12:26;7.83;;;2.50;;
5393;SDS011;2720;52.396;10.064;2023-02-04T12:14:55;21.03;;;3.90;;
5393;SDS011;2720;52.396;10.064;2023-02-04T12:17:23;5.57;;;2.00;;
5393;SDS011;2720;52.396;10.064;2023-02-04T12:19:50;2.20;;;1.67;;
5393;SDS011;2720;52.396;10.064;2023-02-04T12:22:17;5.33;;;2.40;;
5393;SDS011;2720;52.396;10.064;2023-02-04T12:24:44;3.17;;;1.57;;
5393;SDS011;2720;52.396;10.064;2023-02-04T12:27:11;1.60;;;1.50;;
5393;SDS011;2720;52.396;10.064;2023-02-04T12:29:40;3.20;;;1.10;;
5393;SDS011;2720;52.396;10.064;2023-02-04T12:32:07;8.63;;;1.40;;
5393;SDS011;2720;52.396;10.064;2023-02-04T12:34:34;19.20;;;1.97;;
5393;SDS011;2720;52.396;10.064;2023-02-04T12:37:01;1.27;;;1.13;;
5393;SDS011;2720;52.396;10.064;2023-02-04T12:39:28;5.23;;;1.67;;
5393;SDS011;2720;52.396;10.064;2023-02-04T12:41:56;3.03;;;1.27;;
5393;SDS011;2720;52.396;10.064;2023-02-04T12:44:23;2.63;;;0.87;;
5393;SDS011;2720;52.396;10.064;2023-02-04T12:46:51;2.37;;;1.20;;
5393;SDS011;2720;52.396;10.064;2023-02-04T12:49:19;3.93;;;1.67;;
5393;SDS011;2720;52.396;10.064;2023-02-04T12:51:48;1.93;;;1.37;;
5393;SDS011;2720;52.396;10.064;2023-02-04T12:54:16;2.63;;;0.80;;
5393;SDS011;2720;52.396;10.064;2023-02-04T12:56:42;3.37;;;2.13;;
5393;SDS011;2720;52.396;10.064;2023-02-04T12:59:09;2.07;;;1.50;;
5393;SDS011;2720;52.396;10.064;2023-02-04T13:01:36;2.70;;;2.00;;
5393;SDS011;2720;52.396;10.064;2023-02-04T13:04:05;1.13;;;1.03;;
5393;SDS011;2720;52.396;10.064;2023-02-04T13:06:32;4.20;;;1.30;;
5393;SDS011;2720;52.396;10.064;2023-02-04T13:08:59;8.47;;;1.90;;
5393;SDS011;2720;52.396;10.064;2023-02-04T13:11:26;2.67;;;0.87;;
5393;SDS011;2720;52.396;10.064;2023-02-04T13:13:53;1.17;;;0.90;;
5393;SDS011;2720;52.396;10.064;2023-02-04T13:16:20;0.77;;;0.60;;
5393;SDS011;2720;52.396;10.064;2023-02-04T13:18:48;1.83;;;0.73;;
5393;SDS011;2720;52.396;10.064;2023-02-04T13:21:17;1.00;;;0.90;;
5393;SDS011;2720;52.396;10.064;2023-02-04T13:23:44;1.47;;;0.90;;
5393;SDS011;2720;52.396;10.064;2023-02-04T13:26:11;0.93;;;0.90;;
5393;SDS011;2720;52.396;10.064;2023-02-04T13:28:38;1.20;;;1.10;;
5393;SDS011;2720;52.396;10.064;2023-02-04T13:31:05;0.97;;;0.87;;
5393;SDS011;2720;52.396;10.064;2023-02-04T13:33:32;0.80;;;0.63;;
5393;SDS011;2720;52.396;10.064;2023-02-04T13:35:59;2.20;;;0.83;;
5393;SDS011;2720;52.396;10.064;2023-02-04T13:38:27;1.67;;;1.10;;
5393;SDS011;2720;52.396;10.064;2023-02-04T13:40:54;2.70;;;1.20;;
5393;SDS011;2720;52.396;10.064;2023-02-04T13:43:21;2.40;;;1.00;;
5393;SDS011;2720;52.396;10.064;2023-02-04T13:45:48;2.10;;;0.93;;
5393;SDS011;2720;52.396;10.064;2023-02-04T13:48:15;2.40;;;1.87;;
5393;SDS011;2720;52.396;10.064;2023-02-04T13:50:43;2.37;;;1.57;;
5393;SDS011;2720;52.396;10.064;2023-02-04T13:53:09;2.53;;;1.20;;
5393;SDS011;2720;52.396;10.064;2023-02-04T13:55:38;1.53;;;1.43;;
5393;SDS011;2720;52.396;10.064;2023-02-04T13:58:05;5.20;;;1.20;;
5393;SDS011;2720;52.396;10.064;2023-02-04T14:00:32;1.47;;;1.13;;
5393;SDS011;2720;52.396;10.064;2023-02-04T14:02:59;1.83;;;1.03;;
5393;SDS011;2720;52.396;10.064;2023-02-04T14:05:26;2.80;;;1.07;;
5393;SDS011;2720;52.396;10.064;2023-02-04T14:07:53;2.20;;;1.07;;
5393;SDS011;2720;52.396;10.064;2023-02-04T14:10:20;3.97;;;0.70;;
5393;SDS011;2720;52.396;10.064;2023-02-04T14:12:50;2.50;;;1.37;;
5393;SDS011;2720;52.396;10.064;2023-02-04T14:15:18;1.80;;;0.80;;
5393;SDS011;2720;52.396;10.064;2023-02-04T14:17:45;4.93;;;1.40;;
5393;SDS011;2720;52.396;10.064;2023-02-04T14:20:12;0.70;;;0.70;;
5393;SDS011;2720;52.396;10.064;2023-02-04T14:22:39;3.03;;;1.30;;
5393;SDS011;2720;52.396;10.064;2023-02-04T14:25:06;1.63;;;1.20;;
5393;SDS011;2720;52.396;10.064;2023-02-04T14:27:34;1.00;;;0.80;;
5393;SDS011;2720;52.396;10.064;2023-02-04T14:30:08;1.37;;;0.80;;
5393;SDS011;2720;52.396;10.064;2023-02-04T14:32:41;3.13;;;0.77;;
5393;SDS011;2720;52.396;10.064;2023-02-04T14:35:08;10.03;;;2.30;;
5393;SDS011;2720;52.396;10.064;2023-02-04T14:37:35;2.30;;;1.53;;
5393;SDS011;2720;52.396;10.064;2023-02-04T14:40:02;1.30;;;0.73;;
5393;SDS011;2720;52.396;10.064;2023-02-04T14:42:30;1.43;;;0.90;;
5393;SDS011;2720;52.396;10.064;2023-02-04T14:44:57;1.33;;;0.63;;
5393;SDS011;2720;52.396;10.064;2023-02-04T14:47:25;1.27;;;0.50;;
5393;SDS011;2720;52.396;10.064;2023-02-04T14:49:52;1.43;;;0.93;;
5393;SDS011;2720;52.396;10.064;2023-02-04T14:52:19;3.33;;;1.43;;
5393;SDS011;2720;52.396;10.064;2023-02-04T14:54:46;1.43;;;0.90;;
5393;SDS011;2720;52.396;10.064;2023-02-04T14:57:13;2.87;;;0.70;;
5393;SDS011;2720;52.396;10.064;2023-02-04T14:59:40;0.73;;;0.73;;
5393;SDS011;2720;52.396;10.064;2023-02-04T15:02:08;26.13;;;1.07;;
5393;SDS011;2720;52.396;10.064;2023-02-04T15:04:37;1.43;;;1.13;;